| 基因ID | taxid | GeneDate LocusTag | Symbol Synonyms | Symbolfna Fullnamefna | dbXrefs | chromosome maplocation | description | genetype fnastatus | Otherdesignations | Featuretype |
| 111630411 | 218467 | 20220202 | LOC111630411 | EnsemblRapid:LOC111630411 | Un | uncharacterized LOC111630411 | ncRNA | |||
| 111630412 | 218467 | 20220202 | LOC111630412 | EnsemblRapid:LOC111630412 | Un | uncharacterized LOC111630412 | ncRNA | |||
| 111630413 | 218467 | 20220202 | LOC111630413 | EnsemblRapid:LOC111630413 | Un | uncharacterized LOC111630413 | ncRNA | |||
| 111630414 | 218467 | 20220202 | LOC111630414 | EnsemblRapid:LOC111630414 | Un | uncharacterized LOC111630414 | pseudo | |||
| 111630415 | 218467 | 20220202 | LOC111630415 | EnsemblRapid:LOC111630415 | Un | gastric triacylglycerol lipase-like | protein-coding | |||
| 111630416 | 218467 | 20220202 | LOC111630416 | EnsemblRapid:LOC111630416 | Un | cytochrome P450 3A4-like | protein-coding | |||
| 111630417 | 218467 | 20220202 | LOC111630417 | EnsemblRapid:LOC111630417 | Un | uncharacterized LOC111630417 | protein-coding | uncharacterized protein LOC111630417 | ||
| 111630418 | 218467 | 20220202 | LOC111630418 | EnsemblRapid:LOC111630418 | Un | SPATS2-like protein | protein-coding | |||
| 111630419 | 218467 | 20220202 | LOC111630419 | EnsemblRapid:LOC111630419 | Un | uncharacterized LOC111630419 | protein-coding | uncharacterized protein LOC111630419 | ||
| 111630420 | 218467 | 20220202 | LOC111630420 | EnsemblRapid:LOC111630420 | Un | uncharacterized LOC111630420 | protein-coding | uncharacterized protein LOC111630420 | ||
| 111630421 | 218467 | 20220202 | LOC111630421 | EnsemblRapid:LOC111630421 | Un | uncharacterized LOC111630421 | ncRNA | |||
| 111630422 | 218467 | 20220202 | LOC111630422 | EnsemblRapid:LOC111630422 | Un | geminin-like | protein-coding | |||
| 111630423 | 218467 | 20220202 | LOC111630423 | EnsemblRapid:LOC111630423 | Un | sorting nexin-32-like | protein-coding | |||
| 111630424 | 218467 | 20220202 | LOC111630424 | EnsemblRapid:LOC111630424 | Un | gastric triacylglycerol lipase-like | protein-coding | |||
| 111630425 | 218467 | 20220202 | LOC111630425 | EnsemblRapid:LOC111630425 | Un | prokineticin receptor 1-like | protein-coding | |||
| 111630426 | 218467 | 20220202 | LOC111630426 | EnsemblRapid:LOC111630426 | Un | cytochrome P450 3A2-like | protein-coding | cytochrome P450 3A2-like|cytochrome P450 3A8-like | ||
| 111630427 | 218467 | 20220202 | LOC111630427 | EnsemblRapid:LOC111630427 | Un | allatostatin-A receptor-like | protein-coding | |||
| 111630428 | 218467 | 20220202 | LOC111630428 | EnsemblRapid:LOC111630428 | Un | piggyBac transposable element-derived protein 4-like | protein-coding | |||
| 111630429 | 218467 | 20220202 | LOC111630429 | EnsemblRapid:LOC111630429 | Un | prokineticin receptor 1-like | protein-coding | |||
| 111630430 | 218467 | 20220202 | LOC111630430 | EnsemblRapid:LOC111630430 | Un | uncharacterized LOC111630430 | protein-coding | uncharacterized protein LOC111630430 | ||
| 111630431 | 218467 | 20220202 | LOC111630431 | EnsemblRapid:LOC111630431 | Un | probable glutamate receptor | protein-coding | |||
| 111630432 | 218467 | 20220202 | LOC111630432 | EnsemblRapid:LOC111630432 | Un | pre-rRNA-processing protein TSR1 homolog | protein-coding | |||
| 111630433 | 218467 | 20220202 | LOC111630433 | EnsemblRapid:LOC111630433 | Un | urocanate hydratase-like | protein-coding | |||
| 111630434 | 218467 | 20220202 | LOC111630434 | EnsemblRapid:LOC111630434 | Un | uncharacterized LOC111630434 | protein-coding | uncharacterized protein LOC111630434 | ||
| 111630435 | 218467 | 20220202 | LOC111630435 | EnsemblRapid:LOC111630435 | Un | IQ motif and SEC7 domain-containing protein 1-like | protein-coding | |||
| 111630436 | 218467 | 20220202 | LOC111630436 | EnsemblRapid:LOC111630436 | Un | uncharacterized LOC111630436 | protein-coding | uncharacterized protein LOC111630436 | ||
| 111630437 | 218467 | 20220202 | LOC111630437 | EnsemblRapid:LOC111630437 | Un | LIM domain-containing protein jub-like | protein-coding | |||
| 111630438 | 218467 | 20220202 | LOC111630438 | EnsemblRapid:LOC111630438 | Un | urocanate hydratase-like | protein-coding | |||
| 111630439 | 218467 | 20220202 | LOC111630439 | EnsemblRapid:LOC111630439 | Un | mediator of RNA polymerase II transcription subunit 20-like | protein-coding | |||
| 111630440 | 218467 | 20220202 | LOC111630440 | EnsemblRapid:LOC111630440 | Un | WASH complex subunit 1-like | protein-coding | |||
| 111630441 | 218467 | 20220202 | LOC111630441 | EnsemblRapid:LOC111630441 | Un | uncharacterized LOC111630441 | ncRNA | |||
| 111630442 | 218467 | 20220202 | LOC111630442 | EnsemblRapid:LOC111630442 | Un | lysine-specific demethylase 7B-like | protein-coding | |||
| 111630443 | 218467 | 20220202 | LOC111630443 | EnsemblRapid:LOC111630443 | Un | uncharacterized LOC111630443 | ncRNA | |||
| 111630444 | 218467 | 20220202 | LOC111630444 | EnsemblRapid:LOC111630444 | Un | importin-9-like | protein-coding | |||
| 111630445 | 218467 | 20220202 | LOC111630445 | EnsemblRapid:LOC111630445 | Un | uncharacterized LOC111630445 | ncRNA | |||
| 111630446 | 218467 | 20220202 | LOC111630446 | EnsemblRapid:LOC111630446 | Un | uncharacterized LOC111630446 | ncRNA | |||
| 111630447 | 218467 | 20220202 | LOC111630447 | EnsemblRapid:LOC111630447 | Un | polyadenylate-binding protein 4-like | protein-coding | |||
| 111630448 | 218467 | 20220202 | LOC111630448 | EnsemblRapid:LOC111630448 | Un | ADP-ribosylation factor-like protein 15 | protein-coding | |||
| 111630449 | 218467 | 20220202 | LOC111630449 | EnsemblRapid:LOC111630449 | Un | zinc finger protein 512B-like | protein-coding | |||
| 111630450 | 218467 | 20220202 | LOC111630450 | EnsemblRapid:LOC111630450 | Un | uncharacterized LOC111630450 | protein-coding | uncharacterized protein LOC111630450 | ||
| 111630451 | 218467 | 20220202 | LOC111630451 | EnsemblRapid:LOC111630451 | Un | uncharacterized LOC111630451 | protein-coding | uncharacterized protein LOC111630451 | ||
| 111630452 | 218467 | 20220202 | LOC111630452 | EnsemblRapid:LOC111630452 | Un | leucine-rich repeats and immunoglobulin-like domains protein 3 | protein-coding | |||
| 111630453 | 218467 | 20220202 | LOC111630453 | EnsemblRapid:LOC111630453 | Un | immunoglobulin superfamily containing leucine-rich repeat protein 2-like | protein-coding | |||
| 111630454 | 218467 | 20220202 | LOC111630454 | EnsemblRapid:LOC111630454 | Un | uncharacterized LOC111630454 | ncRNA | |||
| 111630455 | 218467 | 20220202 | LOC111630455 | EnsemblRapid:LOC111630455 | Un | U11 spliceosomal RNA | snRNA | |||
| 111630456 | 218467 | 20220202 | LOC111630456 | EnsemblRapid:LOC111630456 | Un | uncharacterized LOC111630456 | protein-coding | uncharacterized protein LOC111630456 | ||
| 111630457 | 218467 | 20220202 | LOC111630457 | EnsemblRapid:LOC111630457 | Un | uncharacterized LOC111630457 | ncRNA | |||
| 111630458 | 218467 | 20220202 | LOC111630458 | EnsemblRapid:LOC111630458 | Un | sorting nexin-21-like | protein-coding | |||
| 111630459 | 218467 | 20220202 | LOC111630459 | EnsemblRapid:LOC111630459 | Un | sorting nexin-21-like | protein-coding | |||
| 111630460 | 218467 | 20220202 | LOC111630460 | EnsemblRapid:LOC111630460 | Un | uncharacterized LOC111630460 | ncRNA |
| 维奥蛋白资源库 - 中文蛋白资源 CopyRight © 2010-2026 |